Time;durP1;ratioP1;P1;durP2;ratioP2;P2;SDS_P1;SDS_P2;PMS_P1;PMS_P2;Temp;Humidity;BMP_temperature;BMP_pressure;BME280_temperature;BME280_humidity;BME280_pressure;Samples;Min_cycle;Max_cycle;Signal;HPM_P1;HPM_P2
2023/07/02 07:01:58;;;;;;;0.25;0.25;;;21.00;99.90;25.50;100989.00;;;;6181254;22;2267780;-62
2023/07/02 07:05:10;;;;;;;2.05;1.88;;;21.30;99.90;25.10;101000.00;;;;6278381;22;20528;-62
2023/07/02 07:07:41;;;;;;;0.10;0.10;;;21.10;99.90;25.30;100997.00;;;;6276900;22;20236;-62
2023/07/02 07:11:03;;;;;;;0.10;0.10;;;21.30;99.90;25.90;100989.00;;;;6278481;22;20148;-62
2023/07/02 07:14:16;;;;;;;0.10;0.10;;;21.40;99.90;25.60;100997.00;;;;6278391;22;20223;-62
2023/07/02 07:17:32;;;;;;;0.30;0.30;;;21.50;99.90;26.10;101006.00;;;;6276608;22;20542;-62
2023/07/02 07:20:02;;;;;;;0.73;0.73;;;21.70;99.90;24.40;101031.00;;;;6278213;22;20164;-62
2023/07/02 07:27:06;;;;;;;1.27;0.43;;;20.30;99.90;25.10;101003.00;;;;6269028;22;20221;-62
2023/07/02 07:29:52;;;;;;;0.10;0.10;;;20.60;99.90;25.90;101004.00;;;;6278098;22;20571;-62
2023/07/02 07:33:04;;;;;;;0.10;0.10;;;21.30;99.90;25.90;101010.00;;;;6276739;22;20176;-62
2023/07/02 07:36:31;;;;;;;0.10;0.10;;;21.70;99.90;26.40;100972.00;;;;6236373;22;20210;-62
2023/07/02 07:39:48;;;;;;;0.10;0.10;;;21.90;99.90;26.40;100991.00;;;;6276770;22;20184;-62
2023/07/02 07:42:59;;;;;;;0.10;0.10;;;22.20;99.90;26.60;100986.00;;;;6277313;22;20141;-62
2023/07/02 07:46:19;;;;;;;0.45;0.45;;;22.50;99.90;27.20;100974.00;;;;6276638;22;20157;-62
2023/07/02 07:49:36;;;;;;;2.72;2.63;;;23.00;99.90;29.30;100948.00;;;;6278165;22;20153;-62
2023/07/02 07:52:49;;;;;;;0.10;0.10;;;24.10;99.90;29.70;100947.00;;;;6278147;22;20165;-62
2023/07/02 07:55:53;;;;;;;0.20;0.20;;;25.10;99.90;30.00;100987.00;;;;6276838;22;20144;-62
2023/07/02 07:58:24;;;;;;;0.10;0.10;;;25.60;99.90;28.30;100985.00;;;;6276884;22;20149;-62
2023/07/02 08:04:21;;;;;;;0.65;0.65;;;24.60;99.90;28.80;100982.00;;;;6278025;22;20168;-62
2023/07/02 08:07:33;;;;;;;0.10;0.10;;;24.40;99.90;28.20;101058.00;;;;6277719;22;20145;-62
2023/07/02 08:10:46;;;;;;;4.22;1.75;;;24.20;99.90;23.40;101102.00;;;;6275448;22;20234;-62
2023/07/02 08:13:24;;;;;;;0.22;0.22;;;21.90;99.90;23.20;101100.00;;;;6252795;22;20173;-64
2023/07/02 08:15:59;;;;;;;3.58;1.73;;;20.60;99.90;22.90;101102.00;;;;6276040;22;20149;-64
2023/07/02 08:18:27;;;;;;;0.10;0.10;;;20.10;99.90;22.40;101106.00;;;;6278041;22;20167;-64
2023/07/02 08:20:57;;;;;;;2.88;1.30;;;19.70;99.90;22.10;101094.00;;;;6277762;22;20141;-64
2023/07/02 08:23:29;;;;;;;0.13;0.13;;;19.40;99.90;23.90;101081.00;;;;6278102;22;20203;-63
2023/07/02 08:26:00;;;;;;;7.38;1.95;;;20.10;99.90;24.30;101075.00;;;;6278044;22;20165;-62
2023/07/02 08:28:26;;;;;;;0.45;0.45;;;20.90;99.90;23.40;101094.00;;;;6276588;22;20329;-62
2023/07/02 08:31:02;;;;;;;1.15;0.73;;;20.80;99.90;23.80;101084.00;;;;6250124;22;20478;-62
2023/07/02 08:33:34;;;;;;;11.10;0.95;;;20.60;99.90;25.10;101049.00;;;;6276582;22;20253;-62
2023/07/02 08:36:09;;;;;;;0.15;0.15;;;21.20;99.90;25.20;101072.00;;;;6277549;22;20133;-62
2023/07/02 08:38:46;;;;;;;0.77;0.77;;;21.50;99.90;23.60;101099.00;;;;6278003;22;20139;-62
2023/07/02 08:41:15;;;;;;;1.17;0.55;;;20.80;99.90;24.50;101076.00;;;;6278064;22;20140;-62
2023/07/02 08:44:31;;;;;;;5.78;1.65;;;21.20;99.90;24.30;101057.00;;;;6277584;22;20144;-62
2023/07/02 08:51:32;;;;;;;0.10;0.10;;;21.30;99.90;24.90;101074.00;;;;6276173;22;20594;-62
2023/07/02 08:54:45;;;;;;;0.10;0.10;;;20.70;99.90;27.30;101063.00;;;;6277872;22;20226;-62
2023/07/02 08:57:11;;;;;;;1.98;1.80;;;22.70;99.90;24.20;101089.00;;;;6276198;22;20141;-62
2023/07/02 08:59:39;;;;;;;1.67;1.00;;;22.40;99.90;24.50;101084.00;;;;6277423;22;20172;-62
2023/07/02 09:02:07;;;;;;;2.45;1.42;;;21.50;99.90;23.30;101100.00;;;;6277593;22;20577;-62
2023/07/02 09:04:42;;;;;;;3.45;3.25;;;20.90;99.90;23.30;101095.00;;;;6277322;22;20149;-62
2023/07/02 09:07:13;;;;;;;6.32;2.22;;;21.00;99.90;22.70;101113.00;;;;6277008;22;20521;-64
2023/07/02 09:09:49;;;;;;;1.88;1.20;;;20.70;99.90;23.70;101069.00;;;;6277608;22;20141;-64
2023/07/02 09:12:32;;;;;;;14.10;5.38;;;20.60;99.90;22.40;101110.00;;;;6275469;22;20176;-64
2023/07/02 09:15:01;;;;;;;13.98;5.07;;;20.60;99.90;24.00;101103.00;;;;6275832;22;20140;-64
2023/07/02 09:17:52;;;;;;;0.25;0.25;;;20.70;99.90;24.30;101080.00;;;;6275095;22;20451;-64
2023/07/02 09:20:20;;;;;;;6.00;4.50;;;20.80;99.90;22.90;101116.00;;;;6277372;22;20137;-62
2023/07/02 09:22:55;;;;;;;3.75;2.95;;;20.50;99.90;22.30;101094.00;;;;6277295;22;20243;-64
2023/07/02 09:25:33;;;;;;;6.25;3.63;;;20.10;99.90;22.20;101126.00;;;;6277141;22;20172;-64
2023/07/02 09:28:14;;;;;;;8.50;3.47;;;20.00;99.90;23.10;101118.00;;;;6275659;22;20206;-64
2023/07/02 09:30:55;;;;;;;1.13;1.10;;;20.20;99.90;24.10;101099.00;;;;6277417;22;20221;-64
2023/07/02 09:33:47;;;;;;;0.10;0.10;;;20.90;99.90;26.90;101052.00;;;;6276534;22;20169;-62
2023/07/02 09:36:15;;;;;;;0.10;0.10;;;22.20;99.90;28.00;101052.00;;;;6264988;22;20168;-62
2023/07/02 09:38:46;;;;;;;0.22;0.22;;;23.70;99.90;25.40;101084.00;;;;6276923;22;20435;-62
2023/07/02 09:41:32;;;;;;;4.47;0.50;;;22.90;99.90;25.00;101119.00;;;;6249852;22;20196;-62
2023/07/02 09:43:58;;;;;;;1.75;1.55;;;22.30;99.90;25.20;101117.00;;;;6275140;22;20157;-62
2023/07/02 09:46:26;;;;;;;5.88;2.75;;;21.90;99.90;24.60;101129.00;;;;6275499;22;20186;-62
2023/07/02 09:48:53;;;;;;;6.10;3.38;;;21.60;99.90;22.90;101129.00;;;;6249851;22;20160;-64
2023/07/02 09:51:22;;;;;;;10.15;4.28;;;20.60;99.90;24.30;101089.00;;;;6275768;22;20145;-64
2023/07/02 09:53:51;;;;;;;2.72;1.45;;;20.90;99.90;24.80;101108.00;;;;6275549;22;20170;-62
2023/07/02 09:56:22;;;;;;;2.05;1.95;;;21.30;99.90;25.30;101093.00;;;;6277212;22;20220;-62
2023/07/02 09:58:51;;;;;;;1.90;1.25;;;21.70;99.90;27.30;101104.00;;;;6275519;22;20137;-62
2023/07/02 10:01:22;;;;;;;2.05;1.48;;;22.90;99.90;28.00;101112.00;;;;6275771;22;20540;-62
2023/07/02 10:03:54;;;;;;;0.30;0.30;;;23.70;99.90;27.80;101110.00;;;;6276291;22;20160;-62
2023/07/02 10:06:25;;;;;;;0.95;0.95;;;23.80;99.90;27.90;101112.00;;;;6276758;22;20137;-62
2023/07/02 10:09:55;;;;;;;1.13;1.05;;;23.70;99.90;27.10;101106.00;;;;6275297;22;20153;-62
2023/07/02 10:13:48;;;;;;;1.38;1.33;;;23.30;99.90;24.70;101134.00;;;;6271908;22;20189;-62
2023/07/02 10:17:02;;;;;;;7.63;2.88;;;22.10;99.90;25.10;101129.00;;;;6274341;22;20163;-62
2023/07/02 10:20:33;;;;;;;3.30;1.75;;;22.40;99.90;25.90;101124.00;;;;6276932;22;20201;-62
2023/07/02 10:33:29;;;;;;;0.55;0.52;;;21.20;99.90;24.30;101111.00;;;;5070389;28;20625;-63
2023/07/02 10:35:58;;;;;;;5.38;1.70;;;21.60;99.90;23.70;101130.00;;;;5062749;28;20195;-64
2023/07/02 10:38:26;;;;;;;7.32;2.10;;;21.50;99.90;23.20;101130.00;;;;5064506;28;20187;-63
2023/07/02 10:41:02;;;;;;;5.22;2.70;;;21.00;99.90;24.00;101137.00;;;;5049204;28;20591;-63
2023/07/02 10:43:34;;;;;;;2.28;0.90;;;21.10;99.90;25.00;101123.00;;;;5050284;28;20228;-63
2023/07/02 10:46:05;;;;;;;2.72;1.05;;;21.40;99.90;26.40;101119.00;;;;5050188;28;20209;-61
2023/07/02 10:48:39;;;;;;;2.20;1.58;;;22.20;99.90;23.40;101133.00;;;;5050041;28;20187;-63
2023/07/02 10:51:16;;;;;;;6.95;2.75;;;21.70;99.90;23.30;101144.00;;;;5050320;28;20209;-63
2023/07/02 10:53:45;;;;;;;9.20;2.40;;;21.10;99.90;24.00;101139.00;;;;5050351;28;20188;-63
2023/07/02 10:56:21;;;;;;;0.40;0.40;;;21.10;99.90;25.70;101092.00;;;;5050034;28;20174;-63
2023/07/02 10:58:51;;;;;;;4.00;2.10;;;22.10;99.90;25.70;101121.00;;;;5050139;28;20273;-61
2023/07/02 11:01:31;;;;;;;0.80;0.75;;;22.70;99.90;26.60;101110.00;;;;5049870;28;20217;-61
2023/07/02 11:04:06;;;;;;;0.22;0.22;;;23.00;99.90;25.50;101124.00;;;;5048597;28;20233;-61
2023/07/02 11:06:38;;;;;;;0.90;0.43;;;22.80;99.90;26.90;101121.00;;;;5043226;28;20181;-61
2023/07/02 11:09:21;;;;;;;0.77;0.75;;;23.10;99.90;24.80;101141.00;;;;5048605;28;20228;-61
2023/07/02 11:12:50;;;;;;;1.02;1.00;;;22.30;99.90;25.50;101149.00;;;;5048686;28;20194;-63
2023/07/02 11:15:17;;;;;;;3.38;2.58;;;22.10;99.90;25.40;101146.00;;;;5045761;28;20201;-64
2023/07/02 11:17:51;;;;;;;6.72;2.40;;;22.00;99.90;23.50;101161.00;;;;5049883;28;20189;-63
2023/07/02 11:20:20;;;;;;;0.28;0.25;;;21.40;99.90;26.10;101129.00;;;;5077328;28;20190;-63
2023/07/02 11:22:48;;;;;;;0.10;0.10;;;21.90;99.90;27.70;101120.00;;;;5049626;28;20195;-61
2023/07/02 11:25:37;;;;;;;2.15;1.42;;;23.80;99.90;28.60;101125.00;;;;5047800;28;20194;-64
2023/07/02 11:28:28;;;;;;;5.70;2.30;;;25.00;99.90;26.70;101114.00;;;;5035233;28;20444;-61
2023/07/02 11:30:58;;;;;;;3.17;1.52;;;24.70;99.90;25.50;101112.00;;;;5019908;28;20248;-61
2023/07/02 11:33:37;;;;;;;2.17;1.33;;;23.70;99.90;25.30;101131.00;;;;5048632;28;20263;-61
2023/07/02 11:36:30;;;;;;;0.98;0.73;;;23.10;99.90;26.90;101113.00;;;;5049118;28;20628;-63
2023/07/02 11:39:05;;;;;;;2.38;1.38;;;23.50;99.90;24.40;101112.00;;;;5048480;28;20193;-62
2023/07/02 11:41:47;;;;;;;2.22;1.48;;;22.70;99.90;25.20;101136.00;;;;5031658;28;20194;-63
2023/07/02 11:44:31;;;;;;;1.88;1.50;;;22.80;99.90;26.90;101124.00;;;;5054316;28;20194;-64
2023/07/02 11:47:02;;;;;;;4.25;2.70;;;23.40;99.90;26.60;101129.00;;;;5034916;28;20202;-63
2023/07/02 11:49:40;;;;;;;5.60;1.00;;;24.20;99.90;26.40;101139.00;;;;5035839;28;20680;-63
2023/07/02 11:52:12;;;;;;;4.07;1.17;;;24.10;99.90;27.00;101129.00;;;;5034733;28;20672;-63
2023/07/02 11:55:04;;;;;;;0.10;0.10;;;24.20;99.90;28.00;101117.00;;;;5035884;28;20187;-63
2023/07/02 11:57:38;;;;;;;1.13;1.02;;;24.30;99.90;25.60;101137.00;;;;5030291;28;20618;-63
2023/07/02 12:00:07;;;;;;;0.75;0.75;;;23.30;99.90;26.50;101124.00;;;;5032871;28;20182;-63
2023/07/02 12:02:37;;;;;;;0.45;0.45;;;23.00;99.90;27.20;101112.00;;;;5031158;28;20613;-63
2023/07/02 12:05:09;;;;;;;3.33;2.17;;;23.50;99.90;25.80;101142.00;;;;5035679;28;20179;-63
2023/07/02 12:07:37;;;;;;;0.75;0.75;;;23.30;99.90;26.80;101125.00;;;;5035605;28;20191;-63
2023/07/02 12:10:07;;;;;;;1.17;0.85;;;23.50;99.90;28.40;101131.00;;;;5035723;28;20194;-63
2023/07/02 12:12:39;;;;;;;1.25;1.02;;;24.50;99.90;24.20;101155.00;;;;5034058;28;20732;-63
2023/07/02 12:15:07;;;;;;;7.85;3.13;;;22.70;99.90;25.50;101135.00;;;;5035429;28;20190;-63
2023/07/02 12:17:53;;;;;;;4.88;2.25;;;22.80;99.90;25.60;101102.00;;;;5035345;28;20210;-63
2023/07/02 12:20:21;;;;;;;5.38;2.15;;;22.80;99.90;25.50;101134.00;;;;5025601;28;20228;-63
2023/07/02 12:22:49;;;;;;;4.47;2.05;;;22.80;99.90;26.90;101115.00;;;;5035149;28;20233;-63
2023/07/02 12:25:18;;;;;;;0.10;0.10;;;23.30;99.90;28.90;101122.00;;;;5035318;28;20178;-63
2023/07/02 12:27:44;;;;;;;3.83;0.65;;;24.40;99.90;28.80;101126.00;;;;5035242;28;20190;-63
2023/07/02 12:30:18;;;;;;;3.17;1.88;;;24.90;99.90;27.20;101129.00;;;;5034884;28;20187;-63
2023/07/02 12:32:54;;;;;;;3.78;1.38;;;24.40;99.90;26.50;101105.00;;;;5033181;28;20574;-63
2023/07/02 12:35:21;;;;;;;4.20;1.80;;;23.50;99.90;26.80;101129.00;;;;5033204;28;20278;-63
2023/07/02 12:37:53;;;;;;;0.40;0.40;;;23.70;99.90;27.90;101123.00;;;;5022581;28;20202;-63
2023/07/02 12:40:48;;;;;;;6.85;3.05;;;24.00;99.90;27.70;101120.00;;;;5033671;28;20653;-63
2023/07/02 12:43:37;;;;;;;3.90;1.92;;;24.40;99.90;25.60;101147.00;;;;5033856;28;20662;-63
2023/07/02 12:46:43;;;;;;;2.75;2.42;;;23.00;99.90;26.10;101145.00;;;;5024720;28;20195;-63
2023/07/02 12:49:49;;;;;;;5.70;2.10;;;22.90;99.90;24.50;101124.00;;;;5048599;28;20668;-62
2023/07/02 12:52:23;;;;;;;3.60;1.85;;;22.40;99.90;27.10;101143.00;;;;5031296;28;20224;-62
2023/07/02 12:55:08;;;;;;;5.70;2.00;;;23.10;99.90;26.90;101131.00;;;;5033653;28;20182;-62
2023/07/02 12:57:37;;;;;;;5.55;2.63;;;23.20;99.90;26.10;101129.00;;;;5034303;28;20210;-63
2023/07/02 13:00:23;;;;;;;0.98;0.80;;;23.50;99.90;26.50;101113.00;;;;5034411;28;20633;-63
2023/07/02 13:02:55;;;;;;;1.85;1.17;;;23.60;99.90;26.20;101139.00;;;;5034834;28;20202;-63
2023/07/02 13:05:25;;;;;;;1.13;1.13;;;23.40;99.90;27.00;101133.00;;;;5033314;28;20233;-63
2023/07/02 13:08:10;;;;;;;2.22;1.27;;;23.20;99.90;27.70;101123.00;;;;5029432;28;20210;-63
2023/07/02 13:10:54;;;;;;;0.68;0.68;;;23.90;99.90;27.40;101104.00;;;;5059261;28;20189;-63
2023/07/02 13:13:19;;;;;;;0.30;0.30;;;23.60;99.90;28.40;101129.00;;;;5029730;28;20194;-63
2023/07/02 13:15:45;;;;;;;0.52;0.52;;;24.20;99.90;28.10;101131.00;;;;5033861;28;20543;-63
2023/07/02 13:18:11;;;;;;;1.58;1.48;;;24.40;99.90;28.80;101130.00;;;;5032579;28;20273;-63
2023/07/02 13:20:46;;;;;;;1.85;0.52;;;24.70;99.90;28.50;101132.00;;;;5034314;28;20178;-63
2023/07/02 13:23:23;;;;;;;0.10;0.10;;;24.80;99.90;29.30;101110.00;;;;5032945;28;20190;-63
2023/07/02 13:25:52;;;;;;;1.10;1.08;;;25.20;99.90;29.80;101135.00;;;;5033670;28;20186;-63
2023/07/02 13:28:34;;;;;;;0.10;0.10;;;25.60;99.90;29.90;101130.00;;;;5034093;28;20183;-63
2023/07/02 13:31:05;;;;;;;1.20;1.10;;;25.80;99.90;26.90;101147.00;;;;5033782;28;20633;-63
2023/07/02 13:33:33;;;;;;;0.30;0.30;;;24.30;99.90;28.80;101138.00;;;;5033868;28;20546;-63
2023/07/02 13:36:06;;;;;;;0.80;0.80;;;24.60;99.90;29.30;101129.00;;;;5033945;28;20187;-63
2023/07/02 13:38:34;;;;;;;0.20;0.20;;;25.20;99.90;29.90;101126.00;;;;5033759;28;20266;-63
2023/07/02 13:41:06;;;;;;;0.75;0.75;;;25.60;99.90;29.80;101124.00;;;;5033933;28;20187;-63
2023/07/02 13:43:35;;;;;;;2.83;1.27;;;25.60;99.90;28.30;101152.00;;;;5031071;28;20194;-63
2023/07/02 13:46:04;;;;;;;2.00;1.58;;;25.20;99.90;26.50;101152.00;;;;5033761;28;20528;-62
2023/07/02 13:48:42;;;;;;;5.57;1.00;;;24.20;99.90;27.10;101112.00;;;;5032377;28;20183;-63
2023/07/02 13:51:11;;;;;;;3.22;1.90;;;23.80;99.90;25.70;101146.00;;;;5033333;28;20186;-63
2023/07/02 13:53:39;;;;;;;0.98;0.88;;;23.40;99.90;26.50;101143.00;;;;5033165;28;20194;-62
2023/07/02 13:56:08;;;;;;;3.72;2.10;;;23.10;99.90;25.30;101149.00;;;;5033357;28;20197;-62
2023/07/02 13:59:00;;;;;;;0.75;0.75;;;23.10;99.90;25.60;101145.00;;;;5033772;28;20240;-63
2023/07/02 14:01:29;;;;;;;0.57;0.57;;;22.70;99.90;25.90;101141.00;;;;5031758;28;20212;-63
2023/07/02 14:03:59;;;;;;;0.10;0.10;;;23.10;99.90;27.90;101119.00;;;;5033147;28;20197;-63
2023/07/02 14:06:25;;;;;;;1.00;0.80;;;23.60;99.90;27.30;101138.00;;;;5033025;28;20183;-63
2023/07/02 14:09:11;;;;;;;3.47;1.95;;;24.00;99.90;26.80;101124.00;;;;5031593;28;20232;-63
2023/07/02 14:11:41;;;;;;;3.30;0.98;;;23.70;99.90;26.20;101133.00;;;;5033498;28;20237;-63
2023/07/02 14:14:09;;;;;;;5.35;2.05;;;23.30;99.90;26.60;101121.00;;;;5032901;28;20193;-63
2023/07/02 14:16:38;;;;;;;0.25;0.25;;;23.50;99.90;27.60;101121.00;;;;5033092;28;20292;-63
2023/07/02 14:19:04;;;;;;;1.38;1.27;;;23.70;99.90;28.30;101116.00;;;;5033139;28;20183;-63
2023/07/02 14:21:39;;;;;;;3.33;1.98;;;24.40;99.90;26.20;101099.00;;;;5032584;28;20210;-62
2023/07/02 14:24:30;;;;;;;0.15;0.15;;;23.70;99.90;28.10;101112.00;;;;5023566;28;20649;-63
2023/07/02 14:27:42;;;;;;;1.05;0.95;;;24.10;99.90;27.40;101123.00;;;;5043487;28;20191;-63
2023/07/02 14:30:49;;;;;;;1.38;1.13;;;24.20;99.90;27.10;101123.00;;;;5026478;28;20257;-63
2023/07/02 14:33:20;;;;;;;2.65;2.25;;;24.00;99.90;27.10;101118.00;;;;5032569;28;20210;-63
2023/07/02 14:36:02;;;;;;;0.20;0.20;;;23.80;99.90;28.10;101089.00;;;;5033313;28;20189;-63
2023/07/02 14:38:53;;;;;;;1.88;1.77;;;24.20;99.90;27.20;101120.00;;;;5033080;28;20186;-63
2023/07/02 14:42:00;;;;;;;4.13;1.17;;;24.00;99.90;27.00;101103.00;;;;5033035;28;20522;-63
2023/07/02 14:44:58;;;;;;;2.35;0.90;;;23.60;99.90;28.50;101108.00;;;;5020839;28;20216;-63
2023/07/02 14:47:29;;;;;;;0.15;0.15;;;24.20;99.90;29.10;101093.00;;;;5063164;28;20193;-62
2023/07/02 14:50:14;;;;;;;5.18;2.55;;;24.80;99.90;27.80;101114.00;;;;5032654;28;20183;-65
2023/07/02 14:52:45;;;;;;;6.70;3.65;;;24.70;99.90;26.50;101104.00;;;;5023034;28;20212;-65
2023/07/02 14:55:14;;;;;;;2.58;1.95;;;23.80;99.90;26.70;101118.00;;;;5033109;28;20286;-64
2023/07/02 14:58:19;;;;;;;2.10;1.85;;;23.50;99.90;25.20;101101.00;;;;5031762;28;20256;-64
2023/07/02 15:00:55;;;;;;;0.10;0.10;;;22.90;99.90;26.70;101113.00;;;;5022459;28;20277;-65
2023/07/02 15:03:26;;;;;;;2.58;2.22;;;22.90;99.90;27.40;101120.00;;;;5032735;28;20277;-65
2023/07/02 15:05:53;;;;;;;2.38;1.17;;;23.70;99.90;26.20;101118.00;;;;5032847;28;20293;-65
2023/07/02 15:08:22;;;;;;;1.38;1.27;;;23.20;99.90;25.30;101121.00;;;;5031258;28;20221;-65
2023/07/02 15:10:57;;;;;;;3.65;1.65;;;23.00;99.90;26.60;101105.00;;;;5032613;28;20187;-65
2023/07/02 15:13:22;;;;;;;0.10;0.10;;;23.10;99.90;27.20;101108.00;;;;5031731;28;20214;-65
2023/07/02 15:15:56;;;;;;;0.82;0.82;;;23.70;99.90;26.40;101113.00;;;;5032701;28;20179;-64
2023/07/02 15:18:34;;;;;;;1.05;0.50;;;23.60;99.90;25.70;101121.00;;;;5033434;28;20191;-64
2023/07/02 15:21:33;;;;;;;1.00;1.00;;;23.10;99.90;27.20;101103.00;;;;5044397;28;20190;-65
2023/07/02 15:24:31;;;;;;;3.40;1.13;;;23.30;99.90;25.90;101115.00;;;;5031455;28;20241;-65
2023/07/02 15:27:20;;;;;;;5.00;3.03;;;23.30;99.90;26.10;101116.00;;;;5036103;28;20259;-65
2023/07/02 15:30:37;;;;;;;4.03;2.08;;;23.30;99.90;25.80;101113.00;;;;5062306;28;20357;-65
2023/07/02 15:33:32;;;;;;;3.13;2.92;;;23.30;99.90;24.50;101123.00;;;;5034783;28;20714;-65
2023/07/02 15:37:01;;;;;;;11.95;2.72;;;22.50;99.90;25.60;101106.00;;;;5030013;28;20208;-65
2023/07/02 15:39:32;;;;;;;1.85;1.65;;;22.50;99.90;25.90;101103.00;;;;5031626;28;20724;-64
2023/07/02 15:42:08;;;;;;;8.38;2.40;;;22.90;99.90;26.20;101107.00;;;;5015099;28;20182;-64
2023/07/02 15:44:43;;;;;;;3.10;1.67;;;22.90;99.90;25.80;101105.00;;;;5065325;28;20187;-64
2023/07/02 15:47:14;;;;;;;2.92;1.27;;;23.10;99.90;25.80;101104.00;;;;5026517;28;20202;-64
2023/07/02 15:49:45;;;;;;;5.22;1.40;;;22.80;99.90;26.50;101095.00;;;;5035647;28;20253;-64
2023/07/02 15:52:18;;;;;;;2.20;1.90;;;23.20;99.90;25.60;101101.00;;;;5032073;28;20246;-64
2023/07/02 15:54:53;;;;;;;4.85;2.45;;;22.90;99.90;25.20;101099.00;;;;5035613;28;20186;-64
2023/07/02 15:57:31;;;;;;;1.25;0.38;;;22.70;99.90;26.70;101096.00;;;;5035684;28;20264;-64
2023/07/02 16:00:02;;;;;;;0.52;0.52;;;23.10;99.90;25.60;101108.00;;;;5030918;28;20186;-64
2023/07/02 16:02:38;;;;;;;0.85;0.50;;;23.00;99.90;26.80;101074.00;;;;5035857;28;20203;-64
2023/07/02 16:05:13;;;;;;;2.30;0.57;;;23.30;99.90;27.60;101076.00;;;;5035403;28;20213;-64
2023/07/02 16:07:44;;;;;;;2.63;0.85;;;23.70;99.90;28.10;101089.00;;;;5034310;28;20198;-65
2023/07/02 16:10:11;;;;;;;4.80;3.75;;;24.00;99.90;24.90;101120.00;;;;5041462;28;20202;-64
2023/07/02 16:12:49;;;;;;;1.48;0.55;;;23.00;99.90;24.80;101115.00;;;;5029587;28;20325;-64
2023/07/02 16:15:21;;;;;;;7.00;4.53;;;22.40;99.90;25.10;101114.00;;;;5017695;28;20653;-64
2023/07/02 16:17:56;;;;;;;4.35;2.33;;;22.30;99.90;25.40;101110.00;;;;5035715;28;20687;-64
2023/07/02 16:20:31;;;;;;;3.00;1.92;;;22.50;99.90;25.60;101105.00;;;;5035009;28;20617;-64
2023/07/02 16:23:01;;;;;;;5.45;2.97;;;22.40;99.90;26.20;101114.00;;;;5035044;28;20195;-64
2023/07/02 16:25:54;;;;;;;4.53;2.38;;;22.70;99.90;25.50;101108.00;;;;5025342;28;20651;-64
2023/07/02 16:28:43;;;;;;;6.78;2.03;;;22.60;99.90;24.70;101124.00;;;;5030915;28;20184;-64
2023/07/02 16:31:15;;;;;;;7.68;1.92;;;22.20;99.90;24.60;101119.00;;;;5029727;28;20578;-64
2023/07/02 16:33:44;;;;;;;3.33;1.73;;;22.00;99.90;25.00;101107.00;;;;5034845;28;20178;-64
2023/07/02 16:36:20;;;;;;;2.65;0.95;;;21.90;99.90;25.00;101099.00;;;;5034575;28;20232;-64
2023/07/02 16:38:51;;;;;;;5.82;2.78;;;22.10;99.90;25.10;101112.00;;;;5033741;28;20615;-65
2023/07/02 16:41:19;;;;;;;6.50;2.85;;;22.50;99.90;25.50;101109.00;;;;5035183;28;20241;-65
2023/07/02 16:44:00;;;;;;;5.05;2.28;;;22.40;99.90;24.90;101112.00;;;;5034846;28;20191;-64
2023/07/02 16:46:31;;;;;;;6.03;2.58;;;22.20;99.90;24.80;101117.00;;;;5030417;28;20388;-64
2023/07/02 16:49:02;;;;;;;1.95;1.08;;;21.90;99.90;24.80;101113.00;;;;5033537;28;20633;-64
2023/07/02 16:51:31;;;;;;;0.43;0.43;;;21.90;99.90;25.50;101108.00;;;;5058486;28;20248;-64
2023/07/02 16:54:08;;;;;;;4.72;2.78;;;22.20;99.90;24.70;101103.00;;;;5034748;28;20183;-64
2023/07/02 16:56:37;;;;;;;2.42;1.80;;;21.90;99.90;25.00;101117.00;;;;5034375;28;20186;-64
2023/07/02 16:59:26;;;;;;;1.58;0.98;;;21.90;99.90;25.00;101101.00;;;;5028382;28;20203;-64
2023/07/02 17:01:58;;;;;;;2.25;2.05;;;21.70;99.90;24.50;101105.00;;;;5034304;28;20607;-64
2023/07/02 17:04:26;;;;;;;0.15;0.15;;;21.80;99.90;24.70;101107.00;;;;5033427;28;20182;-64
2023/07/02 17:06:59;;;;;;;7.20;1.67;;;21.80;99.90;24.40;101107.00;;;;5033086;28;20175;-64
2023/07/02 17:09:40;;;;;;;5.47;2.58;;;21.60;99.90;25.10;101109.00;;;;5027410;28;20637;-64
2023/07/02 17:12:27;;;;;;;4.07;1.95;;;21.80;99.90;24.10;101123.00;;;;5017083;28;20215;-64
2023/07/02 17:14:59;;;;;;;1.35;1.17;;;21.80;99.90;23.70;101119.00;;;;5031848;28;20188;-64
2023/07/02 17:17:28;;;;;;;8.35;2.42;;;21.40;99.90;24.10;101112.00;;;;5034105;28;20202;-64
2023/07/02 17:20:00;;;;;;;4.47;2.78;;;21.30;99.90;23.60;101110.00;;;;5034005;28;20191;-64
2023/07/02 17:22:33;;;;;;;6.30;1.58;;;21.10;99.90;24.40;101104.00;;;;5032627;28;20186;-64
2023/07/02 17:25:03;;;;;;;4.55;1.50;;;21.20;99.90;24.40;101106.00;;;;5034175;28;20170;-64
2023/07/02 17:27:32;;;;;;;1.15;0.90;;;21.40;99.90;24.20;101104.00;;;;5034090;28;20194;-64
2023/07/02 17:30:14;;;;;;;16.40;4.22;;;21.30;99.90;23.10;101108.00;;;;5033013;28;20179;-64
2023/07/02 17:32:42;;;;;;;8.07;1.27;;;21.20;99.90;23.10;101107.00;;;;5033608;28;20218;-64
2023/07/02 17:35:13;;;;;;;3.85;1.50;;;21.00;99.90;23.50;101094.00;;;;5033709;28;20187;-64
2023/07/02 17:37:40;;;;;;;1.30;1.23;;;21.10;99.90;23.60;101090.00;;;;5022840;28;20550;-64
2023/07/02 17:40:11;;;;;;;3.08;1.52;;;21.10;99.90;24.00;101089.00;;;;5032719;28;20269;-64
2023/07/02 17:42:42;;;;;;;4.22;2.85;;;21.10;99.90;23.60;101102.00;;;;5033192;28;20194;-64
2023/07/02 17:45:17;;;;;;;2.33;1.92;;;20.90;99.90;23.70;101093.00;;;;5032605;28;20183;-64
2023/07/02 17:47:46;;;;;;;1.20;0.80;;;20.80;99.90;23.80;101093.00;;;;5033460;28;20217;-64
2023/07/02 17:50:15;;;;;;;1.08;1.08;;;20.80;99.90;23.50;101100.00;;;;5033704;28;20183;-64
2023/07/02 17:52:44;;;;;;;5.32;2.65;;;20.80;99.90;23.60;101067.00;;;;5033341;28;20338;-64
2023/07/02 17:55:18;;;;;;;3.20;1.25;;;20.80;99.90;23.20;101100.00;;;;5033438;28;20181;-64
2023/07/02 17:57:50;;;;;;;4.00;1.65;;;20.60;99.90;23.60;101088.00;;;;5032320;28;20282;-64
2023/07/02 18:00:29;;;;;;;6.55;2.00;;;20.50;99.90;23.30;101106.00;;;;5033451;28;20217;-64
2023/07/02 18:02:57;;;;;;;16.38;3.03;;;20.50;99.90;23.70;101087.00;;;;5033439;28;20232;-64
2023/07/02 18:05:26;;;;;;;1.83;1.45;;;20.50;99.90;23.70;101095.00;;;;5033234;28;20187;-64
2023/07/02 18:07:52;;;;;;;2.15;1.83;;;20.60;99.90;23.70;101099.00;;;;5033024;28;20321;-64
2023/07/02 18:10:46;;;;;;;15.90;2.78;;;20.70;99.90;23.20;101102.00;;;;5033490;28;20644;-64
2023/07/02 18:13:34;;;;;;;8.35;7.47;;;20.60;99.90;23.20;101089.00;;;;5030570;28;20221;-64
2023/07/02 18:16:08;;;;;;;5.55;1.23;;;20.30;99.90;23.70;101084.00;;;;5029141;28;20198;-64
2023/07/02 18:18:36;;;;;;;5.85;2.70;;;20.40;99.90;23.70;101094.00;;;;5031803;28;20542;-64
2023/07/02 18:21:08;;;;;;;2.75;1.08;;;20.60;99.90;24.00;101090.00;;;;5031958;28;20187;-64
2023/07/02 18:23:59;;;;;;;2.63;1.70;;;20.60;99.90;23.10;101095.00;;;;5033337;28;20272;-64
2023/07/02 18:26:26;;;;;;;5.60;1.15;;;20.50;99.90;24.00;101095.00;;;;5031970;28;20538;-64
2023/07/02 18:28:57;;;;;;;0.98;0.50;;;20.60;99.90;23.50;101107.00;;;;5028681;28;20181;-64
2023/07/02 18:31:32;;;;;;;6.57;1.75;;;20.50;99.90;23.70;101094.00;;;;5033027;28;20195;-64
2023/07/02 18:34:01;;;;;;;0.30;0.30;;;20.50;99.90;23.70;101103.00;;;;5033039;28;20186;-64
2023/07/02 18:36:51;;;;;;;6.38;1.08;;;20.40;99.90;22.90;101116.00;;;;5033471;28;20198;-64
2023/07/02 18:39:36;;;;;;;7.93;2.15;;;20.30;99.90;22.70;101124.00;;;;5015678;28;20226;-64
2023/07/02 18:42:11;;;;;;;5.03;2.05;;;20.10;99.90;22.40;101124.00;;;;5032008;28;20588;-64
2023/07/02 18:44:51;;;;;;;1.65;1.25;;;20.00;99.90;23.80;101083.00;;;;5033113;28;20185;-65
2023/07/02 18:47:23;;;;;;;0.68;0.68;;;20.30;99.90;22.70;101095.00;;;;5031744;28;20268;-64
2023/07/02 18:50:09;;;;;;;4.90;2.15;;;20.00;99.90;23.20;101105.00;;;;5032784;28;20186;-64
2023/07/02 18:52:52;;;;;;;1.50;1.40;;;20.10;99.90;22.90;101110.00;;;;5031798;28;20216;-64
2023/07/02 18:55:26;;;;;;;4.15;1.23;;;19.90;99.90;21.80;101120.00;;;;5035607;28;20652;-64
2023/07/02 18:58:00;;;;;;;6.40;3.42;;;19.70;99.90;22.10;101093.00;;;;5036836;28;20632;-64
2023/07/02 19:00:47;;;;;;;2.53;1.50;;;19.60;99.90;21.90;101125.00;;;;5036618;28;20190;-64
2023/07/02 19:03:26;;;;;;;0.47;0.47;;;19.40;99.90;21.80;101108.00;;;;5036949;28;20276;-65